createdAt,value
2022-09-06T00:01:52.364Z,2.03
2022-09-06T00:04:45.111Z,2.00
2022-09-06T00:07:36.767Z,2.00
2022-09-06T00:10:28.728Z,1.67
2022-09-06T00:13:21.475Z,1.57
2022-09-06T00:16:14.253Z,1.70
2022-09-06T00:19:05.837Z,1.63
2022-09-06T00:21:58.600Z,1.40
2022-09-06T00:24:49.801Z,1.50
2022-09-06T00:27:41.169Z,1.50
2022-09-06T00:30:33.078Z,1.70
2022-09-06T00:33:24.337Z,1.80
2022-09-06T00:36:16.044Z,1.70
2022-09-06T00:39:08.611Z,2.10
2022-09-06T00:41:59.721Z,1.53
2022-09-06T00:44:51.344Z,1.60
2022-09-06T00:47:43.504Z,1.90
2022-09-06T00:50:35.243Z,1.53
2022-09-06T00:53:26.849Z,1.87
2022-09-06T00:56:19.562Z,1.73
2022-09-06T00:59:11.249Z,1.40
2022-09-06T01:02:02.888Z,1.87
2022-09-06T01:04:54.536Z,1.77
2022-09-06T01:07:57.628Z,1.43
2022-09-06T01:11:07.844Z,1.33
2022-09-06T01:14:08.077Z,1.80
2022-09-06T01:17:04.136Z,1.90
2022-09-06T01:20:10.800Z,1.50
2022-09-06T01:23:17.646Z,1.40
2022-09-06T01:26:17.798Z,1.60
2022-09-06T01:29:14.058Z,1.50
2022-09-06T01:32:08.547Z,1.47
2022-09-06T01:35:04.267Z,1.67
2022-09-06T01:37:56.152Z,1.60
2022-09-06T01:40:47.618Z,1.10
2022-09-06T01:43:40.743Z,1.83
2022-09-06T01:46:36.342Z,1.40
2022-09-06T01:49:34.821Z,1.30
2022-09-06T01:52:31.900Z,1.60
2022-09-06T01:55:27.549Z,1.50
2022-09-06T01:58:25.371Z,1.47
2022-09-06T02:01:21.335Z,1.63
2022-09-06T02:04:17.990Z,1.70
2022-09-06T02:07:11.716Z,2.10
2022-09-06T02:10:07.220Z,1.60
2022-09-06T02:13:01.014Z,1.50
2022-09-06T02:15:53.390Z,1.77
2022-09-06T02:18:45.500Z,1.43
2022-09-06T02:21:41.201Z,1.70
2022-09-06T02:24:34.509Z,1.57
2022-09-06T02:27:26.169Z,1.60
2022-09-06T02:30:17.539Z,1.50
2022-09-06T02:33:11.070Z,1.77
2022-09-06T02:36:04.262Z,1.93
2022-09-06T02:38:58.915Z,1.57
2022-09-06T02:41:50.400Z,1.63
2022-09-06T02:44:41.553Z,1.43
2022-09-06T02:47:32.720Z,1.70
2022-09-06T02:50:24.203Z,1.33
2022-09-06T02:53:16.252Z,1.40
2022-09-06T02:56:08.754Z,1.57
2022-09-06T02:58:59.907Z,1.40
2022-09-06T03:01:51.121Z,1.37
2022-09-06T03:04:42.323Z,1.67
2022-09-06T03:07:33.649Z,1.40
2022-09-06T03:10:25.058Z,1.50
2022-09-06T03:13:18.090Z,1.70
2022-09-06T03:16:09.468Z,1.40
2022-09-06T03:19:00.691Z,1.70
2022-09-06T03:21:52.105Z,1.40
2022-09-06T03:24:43.509Z,1.53
2022-09-06T03:27:34.930Z,1.70
2022-09-06T03:30:27.970Z,1.70
2022-09-06T03:33:19.593Z,2.53
2022-09-06T03:36:10.702Z,1.97
2022-09-06T03:39:01.725Z,1.70
2022-09-06T03:41:53.038Z,1.63
2022-09-06T03:44:44.287Z,1.80
2022-09-06T03:47:36.937Z,1.70
2022-09-06T03:50:28.319Z,2.03
2022-09-06T03:53:19.976Z,1.60
2022-09-06T03:56:11.222Z,1.40
2022-09-06T03:59:02.466Z,1.97
2022-09-06T04:01:53.687Z,1.90
2022-09-06T04:04:48.306Z,1.67
2022-09-06T04:07:40.753Z,1.90
2022-09-06T04:10:32.285Z,1.90
2022-09-06T04:13:24.153Z,1.90
2022-09-06T04:16:17.655Z,1.90
2022-09-06T04:19:09.095Z,2.00
2022-09-06T04:22:01.783Z,1.90
2022-09-06T04:24:53.062Z,2.00
2022-09-06T04:27:44.372Z,1.60
2022-09-06T04:30:35.633Z,1.67
2022-09-06T04:33:27.357Z,1.70
2022-09-06T04:36:18.539Z,1.80
2022-09-06T04:39:11.118Z,2.00
2022-09-06T04:42:02.496Z,1.83
2022-09-06T04:44:53.759Z,1.70
2022-09-06T04:47:45.076Z,1.80
2022-09-06T04:50:36.291Z,2.00
2022-09-06T04:53:27.678Z,2.17
2022-09-06T04:56:21.874Z,1.77
2022-09-06T04:59:13.201Z,1.83
2022-09-06T05:02:04.889Z,1.97
2022-09-06T05:04:57.203Z,1.87
2022-09-06T05:07:48.593Z,1.77
2022-09-06T05:10:39.959Z,1.63
2022-09-06T05:13:32.605Z,2.00
2022-09-06T05:16:23.945Z,1.70
2022-09-06T05:19:16.501Z,1.73
2022-09-06T05:22:08.026Z,2.07
2022-09-06T05:25:02.584Z,1.73
2022-09-06T05:27:54.135Z,1.73
2022-09-06T05:30:47.030Z,1.73
2022-09-06T05:33:38.269Z,2.20
2022-09-06T05:36:30.415Z,2.03
2022-09-06T05:39:22.140Z,2.10
2022-09-06T05:42:18.555Z,1.77
2022-09-06T05:45:10.515Z,1.50
2022-09-06T05:48:03.543Z,1.90
2022-09-06T05:51:00.878Z,1.73
2022-09-06T05:53:52.093Z,1.87
2022-09-06T05:56:43.297Z,1.77
2022-09-06T05:59:34.567Z,2.07
2022-09-06T06:02:26.012Z,1.80
2022-09-06T06:05:19.041Z,1.77
2022-09-06T06:08:10.272Z,1.63
2022-09-06T06:11:02.011Z,1.67
2022-09-06T06:13:53.449Z,2.10
2022-09-06T06:16:44.840Z,2.17
2022-09-06T06:19:36.646Z,1.80
2022-09-06T06:22:29.043Z,1.77
2022-09-06T06:25:23.154Z,1.70
2022-09-06T06:28:14.456Z,2.10
2022-09-06T06:31:06.644Z,1.73
2022-09-06T06:33:58.367Z,2.07
2022-09-06T06:36:49.705Z,1.90
2022-09-06T06:39:42.420Z,2.10
2022-09-06T06:42:33.534Z,1.80
2022-09-06T06:45:24.975Z,1.93
2022-09-06T06:48:16.161Z,1.80
2022-09-06T06:51:07.671Z,2.07
2022-09-06T06:54:00.182Z,2.20
2022-09-06T06:56:52.829Z,2.10
2022-09-06T06:59:44.236Z,1.93
2022-09-06T07:02:35.676Z,2.00
2022-09-06T07:08:39.089Z,2.47
2022-09-06T07:11:30.489Z,2.40
2022-09-06T07:14:23.035Z,2.40
2022-09-06T07:17:14.267Z,2.50
2022-09-06T07:20:13.861Z,2.27
2022-09-06T07:26:18.723Z,2.67
2022-09-06T07:29:10.421Z,2.43
2022-09-06T07:35:01.406Z,2.40
2022-09-06T07:37:56.540Z,2.50
2022-09-06T07:40:53.832Z,2.80
2022-09-06T07:43:45.529Z,4.10
2022-09-06T07:46:37.357Z,3.70
2022-09-06T07:49:34.697Z,2.40
2022-09-06T07:55:37.889Z,2.47
2022-09-06T07:58:29.860Z,2.40
2022-09-06T08:01:27.693Z,2.93
2022-09-06T08:04:18.848Z,2.40
2022-09-06T08:10:23.026Z,2.57
2022-09-06T08:13:14.224Z,2.73
2022-09-06T08:16:06.377Z,2.83
2022-09-06T08:18:58.500Z,2.53
2022-09-06T08:21:49.769Z,2.93
2022-09-06T08:24:42.637Z,2.97
2022-09-06T08:27:33.870Z,2.90
2022-09-06T08:30:25.238Z,2.73
2022-09-06T08:33:18.074Z,2.67
2022-09-06T08:36:10.255Z,3.20
2022-09-06T08:39:02.708Z,2.63
2022-09-06T08:41:57.335Z,2.93
2022-09-06T08:47:43.211Z,3.47
2022-09-06T08:50:35.619Z,3.27
2022-09-06T08:53:27.343Z,2.97
2022-09-06T08:56:22.385Z,3.17
2022-09-06T08:59:17.642Z,3.30
2022-09-06T09:02:11.570Z,3.27
2022-09-06T09:05:05.483Z,3.30
2022-09-06T09:08:01.604Z,2.93
2022-09-06T09:10:55.753Z,3.30
2022-09-06T09:13:53.167Z,3.40
2022-09-06T09:16:50.819Z,2.90
2022-09-06T09:19:42.872Z,6.20
2022-09-06T09:22:36.117Z,4.50
2022-09-06T09:25:33.643Z,6.83
2022-09-06T09:28:25.986Z,3.17
2022-09-06T09:31:22.381Z,2.70
2022-09-06T09:34:18.511Z,3.00
2022-09-06T09:40:29.627Z,3.23
2022-09-06T09:43:22.903Z,2.97
2022-09-06T09:46:15.816Z,3.13
2022-09-06T09:49:08.923Z,3.00
2022-09-06T09:52:08.502Z,2.73
2022-09-06T09:55:02.002Z,3.53
2022-09-06T09:57:54.708Z,5.30
2022-09-06T10:00:45.983Z,3.17
2022-09-06T10:10:02.009Z,3.10
2022-09-06T10:13:07.094Z,3.00
2022-09-06T10:15:59.694Z,3.07
2022-09-06T10:18:52.873Z,3.33
2022-09-06T10:21:44.250Z,2.77
2022-09-06T10:24:40.257Z,3.50
2022-09-06T10:27:34.069Z,3.40
2022-09-06T10:30:26.005Z,3.10
2022-09-06T10:33:24.826Z,3.80
2022-09-06T10:36:20.458Z,3.13
2022-09-06T10:39:21.492Z,3.20
2022-09-06T10:42:19.028Z,2.80
2022-09-06T10:45:34.431Z,3.43
2022-09-06T10:48:28.484Z,2.80
2022-09-06T10:51:23.804Z,2.97
2022-09-06T10:54:17.925Z,3.17
2022-09-06T11:00:23.633Z,3.07
2022-09-06T11:06:34.676Z,3.60
2022-09-06T11:09:29.992Z,2.93
2022-09-06T11:12:29.271Z,3.00
2022-09-06T11:15:22.008Z,6.30
2022-09-06T11:18:18.463Z,3.10
2022-09-06T11:21:21.588Z,4.47
2022-09-06T11:24:13.732Z,19.03
2022-09-06T11:27:08.133Z,5.33
2022-09-06T11:30:00.742Z,3.80
2022-09-06T11:32:52.725Z,3.57
2022-09-06T11:35:45.048Z,3.50
2022-09-06T11:38:37.631Z,3.77
2022-09-06T11:41:30.565Z,3.87
2022-09-06T11:44:37.065Z,3.97
2022-09-06T11:47:48.097Z,3.50
2022-09-06T11:51:02.055Z,3.80
2022-09-06T11:54:05.756Z,3.77
2022-09-06T11:56:59.424Z,3.90
2022-09-06T11:59:54.941Z,3.60
2022-09-06T12:02:46.634Z,3.73
2022-09-06T12:05:53.039Z,3.50
2022-09-06T12:08:44.770Z,3.57
2022-09-06T12:11:39.734Z,4.00
2022-09-06T12:14:34.198Z,3.50
2022-09-06T12:17:25.759Z,3.97
2022-09-06T12:20:32.187Z,4.03
2022-09-06T12:23:38.659Z,5.03
2022-09-06T12:26:50.783Z,3.83
2022-09-06T12:29:55.340Z,4.00
2022-09-06T12:32:47.934Z,4.07
2022-09-06T12:38:58.061Z,3.63
2022-09-06T12:41:50.589Z,4.20
2022-09-06T12:44:43.966Z,4.40
2022-09-06T12:47:38.311Z,3.90
2022-09-06T12:50:30.101Z,3.97
2022-09-06T12:53:25.045Z,4.80
2022-09-06T12:56:20.592Z,3.33
2022-09-06T12:59:14.298Z,7.70
2022-09-06T13:02:08.027Z,6.73
2022-09-06T13:05:05.423Z,4.57
2022-09-06T13:07:58.165Z,4.67
2022-09-06T13:10:49.427Z,4.07
2022-09-06T13:13:47.523Z,4.27
2022-09-06T13:16:39.379Z,3.93
2022-09-06T13:19:32.124Z,4.30
2022-09-06T13:22:42.120Z,4.27
2022-09-06T13:25:33.564Z,4.27
2022-09-06T13:28:26.434Z,4.23
2022-09-06T13:31:22.753Z,5.13
2022-09-06T13:34:20.804Z,3.97
2022-09-06T13:37:12.577Z,4.60
2022-09-06T13:40:25.513Z,3.77
2022-09-06T13:43:25.026Z,4.23
2022-09-06T13:46:16.551Z,4.40
2022-09-06T13:49:07.862Z,4.90
2022-09-06T13:52:01.283Z,4.57
2022-09-06T13:54:52.642Z,4.40
2022-09-06T13:57:45.403Z,4.30
2022-09-06T14:00:37.029Z,4.60
2022-09-06T14:03:30.994Z,4.23
2022-09-06T14:06:25.427Z,4.83
2022-09-06T14:09:16.610Z,4.57
2022-09-06T14:12:08.227Z,4.87
2022-09-06T14:15:00.939Z,4.80
2022-09-06T14:17:52.303Z,5.03
2022-09-06T14:20:43.866Z,5.27
2022-09-06T14:23:34.979Z,4.37
2022-09-06T14:26:26.488Z,4.43
2022-09-06T14:29:17.993Z,4.73
2022-09-06T14:32:10.538Z,4.40
2022-09-06T14:35:05.586Z,4.50
2022-09-06T14:37:56.895Z,4.83
2022-09-06T14:40:47.857Z,5.00
2022-09-06T14:43:39.115Z,5.00
2022-09-06T14:46:30.838Z,5.50
2022-09-06T14:49:25.251Z,5.37
2022-09-06T14:52:16.594Z,5.30
2022-09-06T14:55:08.256Z,4.90
2022-09-06T14:58:00.353Z,5.10
2022-09-06T15:00:51.906Z,3.90
2022-09-06T15:03:43.982Z,4.40
2022-09-06T15:06:37.084Z,5.60
2022-09-06T15:09:28.760Z,4.83
2022-09-06T15:12:23.037Z,5.00
2022-09-06T15:15:14.438Z,6.30
2022-09-06T15:18:05.890Z,5.10
2022-09-06T15:20:57.346Z,4.93
2022-09-06T15:23:54.657Z,4.50
2022-09-06T15:26:46.080Z,4.60
2022-09-06T15:29:37.594Z,4.33
2022-09-06T15:32:29.365Z,4.70
2022-09-06T15:35:20.985Z,4.57
2022-09-06T15:38:12.866Z,4.17
2022-09-06T15:41:08.297Z,6.10
2022-09-06T15:44:00.732Z,5.57
2022-09-06T15:46:53.275Z,4.67
2022-09-06T15:49:44.822Z,4.60
2022-09-06T15:52:36.140Z,4.60
2022-09-06T15:55:45.079Z,4.30
2022-09-06T15:58:37.706Z,4.83
2022-09-06T16:01:28.967Z,4.93
2022-09-06T16:04:20.138Z,4.73
2022-09-06T16:07:11.892Z,4.90
2022-09-06T16:10:03.118Z,3.80
2022-09-06T16:12:55.617Z,4.50
2022-09-06T16:15:57.592Z,6.00
2022-09-06T16:18:48.924Z,4.57
2022-09-06T16:21:41.706Z,7.47
2022-09-06T16:24:33.334Z,5.20
2022-09-06T16:27:24.881Z,4.50
2022-09-06T16:30:16.410Z,4.10
2022-09-06T16:33:08.958Z,5.17
2022-09-06T16:36:01.125Z,7.00
2022-09-06T16:38:52.814Z,6.27
2022-09-06T16:41:44.892Z,5.27
2022-09-06T16:44:36.192Z,7.97
2022-09-06T16:47:27.329Z,5.53
2022-09-06T16:50:20.143Z,4.50
2022-09-06T16:53:11.255Z,5.07
2022-09-06T16:56:03.074Z,4.73
2022-09-06T16:58:55.106Z,5.60
2022-09-06T17:01:47.088Z,4.17
2022-09-06T17:04:38.259Z,3.83
2022-09-06T17:07:31.142Z,4.27
2022-09-06T17:10:22.371Z,4.30
2022-09-06T17:13:14.127Z,4.60
2022-09-06T17:16:23.637Z,3.60
2022-09-06T17:19:18.599Z,3.90
2022-09-06T17:22:11.031Z,4.23
2022-09-06T17:25:04.146Z,4.20
2022-09-06T17:27:56.020Z,4.70
2022-09-06T17:30:47.974Z,4.50
2022-09-06T17:33:39.680Z,3.50
2022-09-06T17:36:32.134Z,4.03
2022-09-06T17:39:23.353Z,3.67
2022-09-06T17:42:16.066Z,3.83
2022-09-06T17:45:07.665Z,4.20
2022-09-06T17:47:59.161Z,3.27
2022-09-06T17:50:50.363Z,4.30
2022-09-06T17:53:43.948Z,3.83
2022-09-06T17:56:35.680Z,3.53
2022-09-06T17:59:32.804Z,3.67
2022-09-06T18:02:26.049Z,3.63
2022-09-06T18:05:17.277Z,4.30
2022-09-06T18:08:08.623Z,4.10
2022-09-06T18:10:59.770Z,3.93
2022-09-06T18:13:55.756Z,4.10
2022-09-06T18:16:49.505Z,4.00
2022-09-06T18:19:41.060Z,4.63
2022-09-06T18:22:32.595Z,4.30
2022-09-06T18:25:24.684Z,4.53
2022-09-06T18:28:16.162Z,4.03
2022-09-06T18:31:08.710Z,3.77
2022-09-06T18:34:01.532Z,3.97
2022-09-06T18:36:52.770Z,3.80
2022-09-06T18:39:44.003Z,4.30
2022-09-06T18:42:35.185Z,4.03
2022-09-06T18:45:26.406Z,3.97
2022-09-06T18:48:17.922Z,3.70
2022-09-06T18:51:12.928Z,3.93
2022-09-06T18:54:04.090Z,4.17
2022-09-06T18:56:55.654Z,4.00
2022-09-06T18:59:47.273Z,4.33
2022-09-06T19:02:38.509Z,4.50
2022-09-06T19:05:29.893Z,3.87
2022-09-06T19:08:22.994Z,3.43
2022-09-06T19:11:16.539Z,3.67
2022-09-06T19:14:07.707Z,3.90
2022-09-06T19:16:59.066Z,3.60
2022-09-06T19:19:50.382Z,4.20
2022-09-06T19:22:41.614Z,3.57
2022-09-06T19:25:34.108Z,4.03
2022-09-06T19:28:25.586Z,3.60
2022-09-06T19:31:16.904Z,3.67
2022-09-06T19:34:08.512Z,3.87
2022-09-06T19:36:59.864Z,3.00
2022-09-06T19:39:51.168Z,3.63
2022-09-06T19:42:43.759Z,4.33
2022-09-06T19:45:38.076Z,3.13
2022-09-06T19:48:29.929Z,3.40
2022-09-06T19:51:21.590Z,3.70
2022-09-06T19:54:13.158Z,3.37
2022-09-06T19:57:04.452Z,3.33
2022-09-06T19:59:57.133Z,3.90
2022-09-06T20:02:48.427Z,3.73
2022-09-06T20:05:39.637Z,3.63
2022-09-06T20:08:30.911Z,3.50
2022-09-06T20:11:23.330Z,3.70
2022-09-06T20:14:14.897Z,3.57
2022-09-06T20:17:32.123Z,4.20
2022-09-06T20:20:18.783Z,3.30
2022-09-06T20:23:10.368Z,3.60
2022-09-06T20:26:03.159Z,3.00
2022-09-06T20:28:55.947Z,3.87
2022-09-06T20:31:47.313Z,3.63
2022-09-06T20:34:39.837Z,3.70
2022-09-06T20:37:31.071Z,3.40
2022-09-06T20:40:22.359Z,2.70
2022-09-06T20:43:13.658Z,3.20
2022-09-06T20:46:06.207Z,3.33
2022-09-06T20:48:59.738Z,3.53
2022-09-06T20:51:52.315Z,2.90
2022-09-06T20:54:43.470Z,3.00
2022-09-06T20:57:34.580Z,3.50
2022-09-06T21:00:25.744Z,2.80
2022-09-06T21:03:16.980Z,3.10
2022-09-06T21:06:08.831Z,3.00
2022-09-06T21:09:01.471Z,2.67
2022-09-06T21:11:54.294Z,3.50
2022-09-06T21:14:45.668Z,3.30
2022-09-06T21:17:38.920Z,2.83
2022-09-06T21:20:30.177Z,3.10
2022-09-06T21:23:21.849Z,2.70
2022-09-06T21:26:15.868Z,3.13
2022-09-06T21:29:07.337Z,3.13
2022-09-06T21:31:58.662Z,2.67
2022-09-06T21:34:49.845Z,2.83
2022-09-06T21:37:41.100Z,3.20
2022-09-06T21:40:34.587Z,3.23
2022-09-06T21:43:27.315Z,2.83
2022-09-06T21:46:19.859Z,3.00
2022-09-06T21:49:11.972Z,2.97
2022-09-06T21:52:03.569Z,3.00
2022-09-06T21:54:55.008Z,2.87
2022-09-06T21:57:46.220Z,3.60
2022-09-06T22:00:38.811Z,2.80
2022-09-06T22:03:31.211Z,2.90
2022-09-06T22:06:24.829Z,2.70
2022-09-06T22:09:15.938Z,2.83
2022-09-06T22:12:07.291Z,3.10
2022-09-06T22:14:58.929Z,2.80
2022-09-06T22:17:51.480Z,3.00
2022-09-06T22:20:42.622Z,3.20
2022-09-06T22:23:34.158Z,3.00
2022-09-06T22:26:25.435Z,2.63
2022-09-06T22:29:16.793Z,2.50
2022-09-06T22:32:08.015Z,2.90
2022-09-06T22:35:00.614Z,2.80
2022-09-06T22:37:51.868Z,2.80
2022-09-06T22:40:43.012Z,3.07
2022-09-06T22:43:34.094Z,2.60
2022-09-06T22:46:28.435Z,2.20
2022-09-06T22:49:19.612Z,3.27
2022-09-06T22:52:12.691Z,2.80
2022-09-06T22:55:04.237Z,2.90
2022-09-06T22:57:55.585Z,3.00
2022-09-06T23:00:46.755Z,2.50
2022-09-06T23:03:38.047Z,2.60
2022-09-06T23:06:29.453Z,2.37
2022-09-06T23:09:21.967Z,2.60
2022-09-06T23:12:13.182Z,2.60
2022-09-06T23:15:04.472Z,2.50
2022-09-06T23:17:55.848Z,2.80
2022-09-06T23:20:46.937Z,2.60
2022-09-06T23:23:39.171Z,2.27
2022-09-06T23:26:32.752Z,2.60
2022-09-06T23:29:24.226Z,2.67
2022-09-06T23:32:15.368Z,2.83
2022-09-06T23:35:06.975Z,2.77
2022-09-06T23:37:58.259Z,2.83
2022-09-06T23:40:49.570Z,2.50
2022-09-06T23:43:43.114Z,2.57
2022-09-06T23:46:34.341Z,2.43
2022-09-06T23:49:25.388Z,2.40
2022-09-06T23:52:16.602Z,2.20
2022-09-06T23:55:09.385Z,2.70
2022-09-06T23:58:03.270Z,3.00
